createdAt,value
2018-05-25T00:00:34.589Z,70.20
2018-05-25T00:03:00.593Z,70.20
2018-05-25T00:05:27.360Z,68.40
2018-05-25T00:07:53.369Z,68.30
2018-05-25T00:10:20.114Z,69.70
2018-05-25T00:12:46.854Z,69.40
2018-05-25T00:15:13.593Z,70.30
2018-05-25T00:17:40.365Z,69.90
2018-05-25T00:20:06.366Z,69.90
2018-05-25T00:22:32.365Z,69.00
2018-05-25T00:24:59.107Z,69.30
2018-05-25T00:27:26.025Z,70.50
2018-05-25T00:29:52.021Z,70.40
2018-05-25T00:32:18.017Z,70.10
2018-05-25T00:34:44.009Z,69.70
2018-05-25T00:37:10.001Z,69.90
2018-05-25T00:39:35.992Z,69.80
2018-05-25T00:42:01.990Z,69.50
2018-05-25T00:44:28.744Z,70.40
2018-05-25T00:46:56.850Z,71.20
2018-05-25T00:49:22.882Z,71.20
2018-05-25T00:51:48.871Z,70.60
2018-05-25T00:54:14.889Z,71.30
2018-05-25T00:56:41.633Z,72.10
2018-05-25T00:59:07.650Z,72.10
2018-05-25T01:01:34.392Z,72.80
2018-05-25T01:04:01.146Z,73.50
2018-05-25T01:06:27.169Z,73.50
2018-05-25T01:08:53.176Z,73.40
2018-05-25T01:11:19.926Z,73.60
2018-05-25T01:13:46.049Z,73.50
2018-05-25T01:16:12.801Z,72.40
2018-05-25T01:18:38.837Z,72.40
2018-05-25T01:21:04.861Z,72.20
2018-05-25T01:23:30.869Z,71.70
2018-05-25T01:25:56.955Z,71.20
2018-05-25T01:28:23.009Z,72.90
2018-05-25T01:30:50.096Z,74.80
2018-05-25T01:33:16.098Z,74.70
2018-05-25T01:35:42.103Z,74.80
2018-05-25T01:38:08.849Z,75.60
2018-05-25T01:40:35.573Z,75.50
2018-05-25T01:43:02.323Z,74.40
2018-05-25T01:45:29.048Z,73.50
2018-05-25T01:47:55.049Z,73.50
2018-05-25T01:50:21.034Z,74.20
2018-05-25T01:52:47.026Z,77.40
2018-05-25T01:55:13.760Z,76.70
2018-05-25T01:57:39.753Z,76.70
2018-05-25T02:00:05.801Z,77.20
2018-05-25T02:02:31.789Z,77.80
2018-05-25T02:04:57.790Z,74.70
2018-05-25T02:07:23.785Z,75.90
2018-05-25T02:09:49.823Z,76.90
2018-05-25T02:12:16.541Z,77.80
2018-05-25T02:14:42.541Z,77.80
2018-05-25T02:17:08.541Z,79.40
2018-05-25T02:19:34.545Z,79.50
2018-05-25T02:22:00.538Z,79.00
2018-05-25T02:24:27.281Z,78.60
2018-05-25T02:26:53.273Z,78.60
2018-05-25T02:29:19.277Z,79.40
2018-05-25T02:31:45.265Z,78.30
2018-05-25T02:34:12.005Z,79.10
2018-05-25T02:36:38.021Z,79.00
2018-05-25T02:39:04.781Z,81.00
2018-05-25T02:41:30.773Z,81.20
2018-05-25T02:43:57.517Z,78.80
2018-05-25T02:46:24.258Z,80.90
2018-05-25T02:48:51.061Z,81.80
2018-05-25T02:51:17.056Z,81.70
2018-05-25T02:53:43.066Z,81.30
2018-05-25T02:56:09.098Z,82.50
2018-05-25T02:58:35.094Z,81.20
2018-05-25T03:01:01.834Z,81.20
2018-05-25T03:03:28.609Z,81.50
2018-05-25T03:05:54.611Z,81.50
2018-05-25T03:08:21.340Z,80.70
2018-05-25T03:10:48.093Z,81.00
2018-05-25T03:13:14.834Z,81.00
2018-05-25T03:15:41.581Z,79.80
2018-05-25T03:18:07.597Z,79.80
2018-05-25T03:20:34.349Z,80.10
2018-05-25T03:23:00.345Z,80.10
2018-05-25T03:25:26.357Z,80.50
2018-05-25T03:27:53.839Z,81.10
2018-05-25T03:30:20.601Z,80.40
2018-05-25T03:32:46.593Z,80.40
2018-05-25T03:35:13.353Z,79.80
2018-05-25T03:37:40.113Z,79.00
2018-05-25T03:40:06.117Z,79.00
2018-05-25T03:42:32.851Z,79.50
2018-05-25T03:44:59.601Z,78.70
2018-05-25T03:47:25.604Z,78.70
2018-05-25T03:49:52.353Z,79.00
2018-05-25T03:52:19.081Z,80.10
2018-05-25T03:54:45.858Z,79.10
2018-05-25T03:57:11.851Z,78.20
2018-05-25T03:59:56.657Z,78.50
2018-05-25T04:02:22.654Z,78.40
2018-05-25T04:04:49.394Z,81.80
2018-05-25T04:07:16.113Z,79.40
2018-05-25T04:09:42.114Z,79.40
2018-05-25T04:12:08.100Z,80.50
2018-05-25T04:14:34.128Z,79.90
2018-05-25T04:17:00.141Z,81.90
2018-05-25T04:19:26.133Z,81.50
2018-05-25T04:21:52.130Z,79.70
2018-05-25T04:24:18.117Z,80.10
2018-05-25T04:26:44.120Z,80.80
2018-05-25T04:29:10.877Z,79.10
2018-05-25T04:31:36.988Z,79.00
2018-05-25T04:34:03.014Z,78.80
2018-05-25T04:36:29.053Z,79.20
2018-05-25T04:38:55.049Z,79.30
2018-05-25T04:41:21.795Z,81.00
2018-05-25T04:43:48.521Z,80.50
2018-05-25T04:46:14.517Z,80.50
2018-05-25T04:48:40.505Z,79.70
2018-05-25T04:51:06.502Z,79.30
2018-05-25T04:53:33.233Z,77.70
2018-05-25T04:55:59.973Z,79.70
2018-05-25T04:58:26.701Z,78.70
2018-05-25T05:00:52.710Z,78.80
2018-05-25T05:03:18.734Z,79.90
2018-05-25T05:05:44.737Z,78.70
2018-05-25T05:08:10.722Z,80.30
2018-05-25T05:10:37.460Z,79.90
2018-05-25T05:13:04.186Z,80.30
2018-05-25T05:15:30.209Z,80.30
2018-05-25T05:17:56.258Z,81.20
2018-05-25T05:20:22.274Z,80.10
2018-05-25T05:22:48.273Z,80.10
2018-05-25T05:25:14.281Z,79.70
2018-05-25T05:27:40.274Z,80.00
2018-05-25T05:30:06.289Z,80.50
2018-05-25T05:32:32.402Z,79.70
2018-05-25T05:35:00.189Z,80.40
2018-05-25T05:37:26.714Z,80.40
2018-05-25T05:39:52.716Z,79.60
2018-05-25T05:42:18.739Z,80.10
2018-05-25T05:44:45.468Z,80.00
2018-05-25T05:47:12.208Z,79.90
2018-05-25T05:49:38.950Z,80.60
2018-05-25T05:52:05.720Z,79.60
2018-05-25T05:54:31.700Z,79.50
2018-05-25T05:56:57.709Z,78.30
2018-05-25T05:59:23.705Z,77.90
2018-05-25T06:01:49.714Z,77.30
2018-05-25T06:04:15.735Z,77.50
2018-05-25T06:06:41.744Z,77.50
2018-05-25T06:09:08.481Z,76.50
2018-05-25T06:11:35.213Z,76.20
2018-05-25T06:14:01.950Z,75.40
2018-05-25T06:16:28.713Z,76.40
2018-05-25T06:18:55.462Z,74.80
2018-05-25T06:21:21.467Z,74.70
2018-05-25T06:23:48.197Z,75.10
2018-05-25T06:26:14.942Z,76.30
2018-05-25T06:28:41.665Z,74.70
2018-05-25T06:31:07.661Z,74.70
2018-05-25T06:33:33.649Z,74.70
2018-05-25T06:35:59.658Z,74.70
2018-05-25T06:38:26.399Z,75.00
2018-05-25T06:40:53.149Z,74.50
2018-05-25T06:43:19.886Z,74.60
2018-05-25T06:45:46.637Z,74.00
2018-05-25T06:48:12.641Z,74.00
2018-05-25T06:50:38.696Z,73.50
2018-05-25T06:53:05.413Z,72.80
2018-05-25T06:55:32.139Z,72.30
2018-05-25T06:57:58.922Z,73.20
2018-05-25T07:00:24.893Z,73.20
2018-05-25T07:02:51.644Z,72.60
2018-05-25T07:05:18.372Z,72.30
2018-05-25T07:07:44.426Z,72.10
2018-05-25T07:10:10.457Z,70.90
2018-05-25T07:12:36.589Z,71.00
2018-05-25T07:15:02.661Z,70.40
2018-05-25T07:17:28.680Z,70.40
2018-05-25T07:19:54.672Z,70.10
2018-05-25T07:22:20.685Z,68.30
2018-05-25T07:24:46.709Z,68.20
2018-05-25T07:27:12.716Z,68.10
2018-05-25T07:29:39.440Z,68.20
2018-05-25T07:32:06.197Z,67.20
2018-05-25T07:34:32.941Z,65.90
2018-05-25T07:36:59.914Z,66.20
2018-05-25T07:39:26.026Z,66.20
2018-05-25T07:41:52.213Z,66.80
2018-05-25T07:44:18.208Z,65.40
2018-05-25T07:46:44.198Z,65.40
2018-05-25T07:49:10.185Z,64.90
2018-05-25T07:51:36.361Z,64.30
2018-05-25T07:54:02.345Z,63.90
2018-05-25T07:56:29.095Z,64.50
2018-05-25T07:58:55.821Z,64.00
2018-05-25T08:01:21.821Z,64.00
2018-05-25T08:03:47.812Z,63.30
2018-05-25T08:06:13.797Z,63.00
2018-05-25T08:08:40.634Z,63.20
2018-05-25T08:11:06.778Z,63.10
2018-05-25T08:13:33.636Z,61.30
2018-05-25T08:15:59.653Z,61.30
2018-05-25T08:18:25.667Z,61.20
2018-05-25T08:20:52.405Z,62.40
2018-05-25T08:23:19.153Z,62.20
2018-05-25T08:25:45.877Z,61.60
2018-05-25T08:28:12.625Z,61.70
2018-05-25T08:30:39.344Z,61.00
2018-05-25T08:33:05.352Z,61.00
2018-05-25T08:35:31.337Z,61.40
2018-05-25T08:37:57.357Z,61.40
2018-05-25T08:40:23.350Z,60.70
2018-05-25T08:42:50.105Z,60.20
2018-05-25T08:45:16.833Z,59.40
2018-05-25T08:47:43.576Z,61.70
2018-05-25T08:50:10.302Z,59.40
2018-05-25T08:52:36.309Z,59.40
2018-05-25T08:55:02.337Z,60.40
2018-05-25T08:57:28.302Z,60.20
2018-05-25T08:59:54.317Z,59.20
2018-05-25T09:02:21.066Z,57.40
2018-05-25T09:04:47.060Z,57.30
2018-05-25T09:07:13.175Z,56.30
2018-05-25T09:09:39.205Z,56.30
2018-05-25T09:12:05.226Z,56.20
2018-05-25T09:14:31.234Z,56.90
2018-05-25T09:16:57.245Z,56.30
2018-05-25T09:19:23.241Z,55.20
2018-05-25T09:21:49.252Z,54.80
2018-05-25T09:24:15.989Z,55.10
2018-05-25T09:26:42.002Z,55.10
2018-05-25T09:29:08.925Z,54.00
2018-05-25T09:31:34.925Z,53.90
2018-05-25T09:34:00.931Z,54.10
2018-05-25T09:36:26.918Z,53.40
2018-05-25T09:38:53.669Z,51.90
2018-05-25T09:41:20.404Z,50.70
2018-05-25T09:43:47.158Z,50.90
2018-05-25T09:46:13.163Z,50.90
2018-05-25T09:48:39.902Z,49.80
2018-05-25T09:51:06.652Z,48.50
2018-05-25T09:53:32.675Z,48.50
2018-05-25T09:55:59.628Z,49.10
2018-05-25T09:58:26.457Z,48.50
2018-05-25T10:00:53.193Z,48.00
2018-05-25T10:03:19.954Z,47.90
2018-05-25T10:05:45.974Z,48.00
2018-05-25T10:08:12.737Z,47.30
2018-05-25T10:10:38.735Z,47.20
2018-05-25T10:13:05.482Z,45.40
2018-05-25T10:15:32.219Z,44.90
2018-05-25T10:17:59.010Z,45.20
2018-05-25T10:20:24.969Z,45.10
2018-05-25T10:22:51.713Z,45.30
2018-05-25T10:25:18.453Z,44.90
2018-05-25T10:27:45.193Z,43.70
2018-05-25T10:30:11.224Z,43.70
2018-05-25T10:32:37.952Z,44.50
2018-05-25T10:35:03.975Z,44.50
2018-05-25T10:37:30.713Z,43.70
2018-05-25T10:39:56.880Z,43.80
2018-05-25T10:42:22.869Z,44.10
2018-05-25T10:44:49.608Z,44.00
2018-05-25T10:47:15.589Z,43.90
2018-05-25T10:49:41.614Z,41.80
2018-05-25T10:52:08.401Z,39.60
2018-05-25T10:54:35.165Z,40.70
2018-05-25T10:57:01.175Z,40.70
2018-05-25T10:59:27.925Z,39.20
2018-05-25T11:01:53.910Z,39.20
2018-05-25T11:04:19.926Z,39.60
2018-05-25T11:06:45.913Z,38.90
2018-05-25T11:09:11.917Z,39.50
2018-05-25T11:11:38.673Z,36.90
2018-05-25T11:14:04.682Z,36.90
2018-05-25T11:16:30.702Z,37.50
2018-05-25T11:18:57.441Z,35.70
2018-05-25T11:21:24.169Z,35.30
2018-05-25T11:23:50.921Z,35.20
2018-05-25T11:26:17.663Z,35.10
2018-05-25T11:28:43.670Z,35.10
2018-05-25T11:31:10.409Z,34.30
2018-05-25T11:33:36.443Z,34.20
2018-05-25T11:36:02.464Z,33.00
2018-05-25T11:38:29.210Z,33.10
2018-05-25T11:40:55.978Z,32.40
2018-05-25T11:43:21.968Z,32.40
2018-05-25T11:45:48.708Z,32.20
2018-05-25T11:48:15.440Z,30.40
2018-05-25T11:50:42.206Z,30.00
2018-05-25T11:53:08.254Z,29.90
2018-05-25T11:55:34.261Z,29.80
2018-05-25T11:58:00.257Z,29.60
2018-05-25T12:00:27.153Z,29.20
2018-05-25T12:02:53.158Z,29.10
2018-05-25T12:05:19.148Z,29.10
2018-05-25T12:07:45.129Z,28.30
2018-05-25T12:10:11.125Z,28.70
2018-05-25T12:12:37.114Z,27.90
2018-05-25T12:15:03.144Z,28.00
2018-05-25T12:17:29.897Z,25.10
2018-05-25T12:19:56.641Z,26.50
2018-05-25T12:22:23.374Z,26.20
2018-05-25T12:24:50.137Z,26.50
2018-05-25T12:27:16.131Z,26.50
2018-05-25T12:29:42.923Z,25.70
2018-05-25T12:32:08.934Z,25.60
2018-05-25T12:34:34.937Z,25.40
2018-05-25T12:37:00.933Z,25.00
2018-05-25T12:39:26.939Z,25.20
2018-05-25T12:41:52.929Z,25.20
2018-05-25T12:44:18.941Z,25.10
2018-05-25T12:46:44.921Z,25.10
2018-05-25T12:49:10.929Z,25.00
2018-05-25T12:51:36.937Z,24.70
2018-05-25T12:54:02.938Z,24.80
2018-05-25T12:56:28.941Z,24.60
2018-05-25T12:58:55.683Z,24.60
2018-05-25T13:01:22.427Z,25.10
2018-05-25T13:03:48.423Z,25.10
2018-05-25T13:06:14.437Z,25.30
2018-05-25T13:08:40.445Z,26.10
2018-05-25T13:11:06.465Z,25.40
2018-05-25T13:13:32.477Z,25.20
2018-05-25T13:15:58.477Z,24.90
2018-05-25T13:18:24.653Z,25.80
2018-05-25T13:20:50.670Z,25.40
2018-05-25T13:23:16.666Z,25.40
2018-05-25T13:25:42.670Z,26.00
2018-05-25T13:28:08.657Z,25.40
2018-05-25T13:30:34.686Z,26.00
2018-05-25T13:33:00.674Z,25.70
2018-05-25T13:35:26.669Z,24.80
2018-05-25T13:37:52.653Z,24.60
2018-05-25T13:40:19.407Z,24.00
2018-05-25T13:42:46.154Z,23.30
2018-05-25T13:45:13.929Z,22.00
2018-05-25T13:47:39.977Z,22.50
2018-05-25T13:50:06.457Z,21.30
2018-05-25T13:52:32.533Z,18.60
2018-05-25T13:54:58.545Z,17.80
2018-05-25T13:57:24.528Z,15.10
2018-05-25T13:59:50.537Z,15.90
2018-05-25T14:02:16.533Z,14.90
2018-05-25T14:04:42.549Z,15.10
2018-05-25T14:07:08.529Z,15.50
2018-05-25T14:09:34.534Z,15.10
2018-05-25T14:12:00.866Z,12.60
2018-05-25T14:14:26.949Z,13.40
2018-05-25T14:16:52.969Z,13.60
2018-05-25T14:19:18.974Z,13.50
2018-05-25T14:21:45.727Z,14.10
2018-05-25T14:24:11.739Z,14.20
2018-05-25T14:26:38.485Z,12.40
2018-05-25T14:29:05.221Z,13.00
2018-05-25T14:31:31.967Z,13.70
2018-05-25T14:33:57.970Z,13.70
2018-05-25T14:36:24.752Z,13.30
2018-05-25T14:38:50.885Z,13.20
2018-05-25T14:41:16.932Z,14.20
2018-05-25T14:43:42.873Z,14.80
2018-05-25T14:46:08.885Z,14.10
2018-05-25T14:48:34.942Z,14.60
2018-05-25T14:51:01.940Z,14.60
2018-05-25T14:53:27.943Z,14.60
2018-05-25T14:55:53.953Z,15.00
2018-05-25T14:58:19.941Z,14.20
2018-05-25T15:00:46.333Z,15.20
2018-05-25T15:03:12.409Z,14.90
2018-05-25T15:05:38.660Z,14.80
2018-05-25T15:08:04.683Z,14.50
2018-05-25T15:10:30.685Z,14.30
2018-05-25T15:12:57.405Z,15.40
2018-05-25T15:15:23.522Z,15.30
2018-05-25T15:17:49.549Z,15.30
2018-05-25T15:20:15.544Z,17.00
2018-05-25T15:22:41.537Z,17.70
2018-05-25T15:25:08.272Z,17.50
2018-05-25T15:27:35.017Z,18.20
2018-05-25T15:30:01.786Z,18.40
2018-05-25T15:32:27.796Z,18.30
2018-05-25T15:34:53.789Z,19.50
2018-05-25T15:37:20.524Z,20.70
2018-05-25T15:39:46.517Z,20.30
2018-05-25T15:42:12.572Z,20.40
2018-05-25T15:44:38.549Z,20.90
2018-05-25T15:47:04.541Z,21.00
2018-05-25T15:49:31.266Z,21.70
2018-05-25T15:51:58.005Z,22.20
2018-05-25T15:54:24.746Z,23.00
2018-05-25T15:56:51.496Z,23.80
2018-05-25T15:59:17.505Z,23.80
2018-05-25T16:01:43.525Z,24.40
2018-05-25T16:04:09.507Z,24.20
2018-05-25T16:06:35.520Z,24.00
2018-05-25T16:09:01.505Z,24.10
2018-05-25T16:11:28.245Z,24.20
2018-05-25T16:13:54.981Z,24.30
2018-05-25T16:16:20.984Z,24.30
2018-05-25T16:18:46.961Z,24.20
2018-05-25T16:21:12.969Z,24.10
2018-05-25T16:23:39.703Z,24.50
2018-05-25T16:26:06.821Z,24.80
2018-05-25T16:28:32.808Z,24.80
2018-05-25T16:30:58.859Z,25.20
2018-05-25T16:33:24.801Z,26.00
2018-05-25T16:35:50.794Z,25.90
2018-05-25T16:38:16.805Z,26.50
2018-05-25T16:40:42.853Z,26.90
2018-05-25T16:43:08.887Z,26.40
2018-05-25T16:45:34.877Z,26.10
2018-05-25T16:48:00.876Z,26.90
2018-05-25T16:50:26.889Z,26.70
2018-05-25T16:52:53.660Z,25.80
2018-05-25T16:55:19.650Z,25.80
2018-05-25T16:57:46.391Z,26.10
2018-05-25T17:00:13.131Z,25.20
2018-05-25T17:02:39.881Z,25.70
2018-05-25T17:05:06.675Z,26.30
2018-05-25T17:07:32.624Z,26.40
2018-05-25T17:09:58.617Z,26.30
2018-05-25T17:12:24.629Z,26.40
2018-05-25T17:14:50.617Z,27.20
2018-05-25T17:17:16.637Z,26.10
2018-05-25T17:19:43.380Z,26.30
2018-05-25T17:22:09.414Z,26.20
2018-05-25T17:24:35.396Z,27.80
2018-05-25T17:27:01.549Z,27.40
2018-05-25T17:29:28.297Z,27.00
2018-05-25T17:31:54.317Z,27.00
2018-05-25T17:34:21.048Z,26.20
2018-05-25T17:36:47.798Z,25.80
2018-05-25T17:39:14.525Z,25.50
2018-05-25T17:41:41.786Z,26.20
2018-05-25T17:44:08.516Z,26.50
2018-05-25T17:46:35.404Z,26.90
2018-05-25T17:49:01.398Z,26.90
2018-05-25T17:51:27.413Z,27.60
2018-05-25T17:53:54.164Z,27.70
2018-05-25T17:56:20.888Z,28.10
2018-05-25T17:58:47.629Z,28.00
2018-05-25T18:01:14.377Z,28.30
2018-05-25T18:03:41.126Z,28.30
2018-05-25T18:06:07.881Z,28.70
2018-05-25T18:08:33.888Z,28.80
2018-05-25T18:10:59.998Z,29.50
2018-05-25T18:13:26.053Z,30.00
2018-05-25T18:15:52.045Z,30.00
2018-05-25T18:18:18.808Z,30.30
2018-05-25T18:20:44.801Z,30.30
2018-05-25T18:23:10.850Z,30.80
2018-05-25T18:25:36.852Z,31.80
2018-05-25T18:28:02.867Z,32.30
2018-05-25T18:30:28.860Z,33.00
2018-05-25T18:32:54.849Z,34.10
2018-05-25T18:35:21.570Z,34.40
2018-05-25T18:37:48.407Z,35.80
2018-05-25T18:40:14.389Z,35.80
2018-05-25T18:42:40.384Z,35.90
2018-05-25T18:45:06.408Z,36.40
2018-05-25T18:47:33.123Z,36.70
2018-05-25T18:49:59.845Z,38.00
2018-05-25T18:52:26.601Z,38.20
2018-05-25T18:54:53.334Z,39.10
2018-05-25T18:57:19.368Z,39.20
2018-05-25T18:59:46.108Z,40.50
2018-05-25T19:02:12.934Z,40.30
2018-05-25T19:04:38.962Z,40.40
2018-05-25T19:07:05.045Z,41.00
2018-05-25T19:09:32.495Z,42.50
2018-05-25T19:11:59.484Z,42.20
2018-05-25T19:14:26.703Z,42.60
2018-05-25T19:16:52.757Z,42.60
2018-05-25T19:19:18.762Z,42.90
2018-05-25T19:21:44.741Z,43.30
2018-05-25T19:24:11.482Z,45.30
2018-05-25T19:26:38.218Z,45.30
2018-05-25T19:29:05.076Z,46.10
2018-05-25T19:31:31.182Z,45.90
2018-05-25T19:33:58.289Z,47.10
2018-05-25T19:36:24.267Z,47.00
2018-05-25T19:38:51.282Z,47.70
2018-05-25T19:41:17.436Z,47.30
2018-05-25T19:43:44.311Z,49.20
2018-05-25T19:46:10.377Z,49.10
2018-05-25T19:48:36.375Z,49.10
2018-05-25T19:51:02.375Z,50.90
2018-05-25T19:53:28.381Z,51.00
2018-05-25T19:55:55.137Z,51.50
2018-05-25T19:58:21.271Z,51.50
2018-05-25T20:00:48.072Z,53.00
2018-05-25T20:03:14.148Z,52.90
2018-05-25T20:05:40.941Z,53.10
2018-05-25T20:08:07.700Z,53.10
2018-05-25T20:10:34.570Z,53.80
2018-05-25T20:13:00.666Z,53.80
2018-05-25T20:15:27.394Z,53.60
2018-05-25T20:17:54.158Z,54.90
2018-05-25T20:20:20.150Z,55.00
2018-05-25T20:22:46.152Z,54.50
2018-05-25T20:25:12.125Z,55.10
2018-05-25T20:27:38.861Z,55.50
2018-05-25T20:30:05.625Z,56.80
2018-05-25T20:32:31.622Z,56.70
2018-05-25T20:34:58.385Z,56.90
2018-05-25T20:37:25.089Z,58.20
2018-05-25T20:39:51.094Z,58.20
2018-05-25T20:42:17.082Z,57.70
2018-05-25T20:44:43.105Z,57.60
2018-05-25T20:47:09.979Z,57.20
2018-05-25T20:49:36.463Z,57.30
2018-05-25T20:52:02.614Z,58.10
2018-05-25T20:54:28.605Z,57.60
2018-05-25T20:56:54.631Z,58.60
2018-05-25T20:59:21.370Z,57.30
2018-05-25T21:01:48.084Z,59.30
2018-05-25T21:04:14.120Z,59.30
2018-05-25T21:06:40.977Z,59.80
2018-05-25T21:09:07.722Z,59.40
2018-05-25T21:11:34.459Z,58.90
2018-05-25T21:14:01.206Z,59.70
2018-05-25T21:16:27.204Z,59.80
2018-05-25T21:18:53.246Z,59.80
2018-05-25T21:21:19.973Z,60.60
2018-05-25T21:23:46.717Z,60.80
2018-05-25T21:26:12.706Z,60.90
2018-05-25T21:28:38.696Z,61.30
2018-05-25T21:31:04.718Z,61.20
2018-05-25T21:33:30.745Z,60.50
2018-05-25T21:35:56.745Z,61.20
2018-05-25T21:38:23.486Z,60.30
2018-05-25T21:40:50.289Z,62.00
2018-05-25T21:43:16.290Z,62.00
2018-05-25T21:45:42.282Z,61.50
2018-05-25T21:48:08.301Z,63.30
2018-05-25T21:50:35.090Z,62.80
2018-05-25T21:53:01.085Z,62.90
2018-05-25T21:55:27.447Z,63.30
2018-05-25T21:57:54.357Z,63.50
2018-05-25T22:00:20.370Z,63.30
2018-05-25T22:02:47.114Z,62.90
2018-05-25T22:05:13.155Z,62.80
2018-05-25T22:07:39.222Z,63.10
2018-05-25T22:10:05.245Z,63.80
2018-05-25T22:12:31.242Z,65.00
2018-05-25T22:14:57.233Z,64.20
2018-05-25T22:17:23.994Z,65.60
2018-05-25T22:19:49.991Z,65.70
2018-05-25T22:22:16.708Z,68.10
2018-05-25T22:24:42.704Z,68.20
2018-05-25T22:27:08.698Z,69.80
2018-05-25T22:29:34.702Z,69.90
2018-05-25T22:32:01.425Z,69.30
2018-05-25T22:34:27.442Z,69.10
2018-05-25T22:36:53.437Z,69.20
2018-05-25T22:39:19.430Z,69.90
2018-05-25T22:41:49.202Z,69.90
2018-05-25T22:44:21.221Z,69.50
2018-05-25T22:46:53.252Z,70.70
2018-05-25T22:49:25.252Z,70.30
2018-05-25T22:51:57.305Z,70.80
2018-05-25T22:54:31.293Z,71.00
2018-05-25T22:56:58.009Z,71.20
2018-05-25T22:59:23.995Z,71.30
2018-05-25T23:01:49.989Z,73.40
2018-05-25T23:04:16.006Z,73.20
2018-05-25T23:06:42.758Z,74.90
2018-05-25T23:09:08.745Z,74.90
2018-05-25T23:11:35.137Z,74.20
2018-05-25T23:14:01.150Z,73.50
2018-05-25T23:16:27.189Z,73.40
2018-05-25T23:18:53.201Z,73.30
2018-05-25T23:21:19.206Z,75.10
2018-05-25T23:23:45.234Z,75.00
2018-05-25T23:26:11.230Z,74.30
2018-05-25T23:28:37.961Z,75.60
2018-05-25T23:31:03.969Z,75.60
2018-05-25T23:33:29.961Z,74.30
2018-05-25T23:35:55.957Z,74.10
2018-05-25T23:38:22.690Z,73.70
2018-05-25T23:40:49.432Z,76.30
2018-05-25T23:43:16.164Z,75.90
2018-05-25T23:45:42.902Z,77.10
2018-05-25T23:48:08.926Z,77.10
2018-05-25T23:50:35.669Z,76.40
2018-05-25T23:53:02.410Z,75.70
2018-05-25T23:55:29.159Z,74.90
2018-05-25T23:57:55.889Z,75.70
